Time;durP1;ratioP1;P1;durP2;ratioP2;P2;SDS_P1;SDS_P2;PMS_P1;PMS_P2;Temp;Humidity;BMP_temperature;BMP_pressure;BME280_temperature;BME280_humidity;BME280_pressure;Samples;Min_cycle;Max_cycle;Signal;HPM_P1;HPM_P2
2022/12/14 00:02:12;;;;;;;15.73;10.07;;;;;;;-143.84;62.09;45279.47;5131853;27;20496;-70
2022/12/14 00:04:41;;;;;;;12.33;9.60;;;;;;;-143.84;62.28;45271.88;5131498;27;20803;-70
2022/12/14 00:07:08;;;;;;;13.93;9.63;;;;;;;-143.84;62.14;45281.38;5131885;27;20439;-70
2022/12/14 00:09:35;;;;;;;12.70;7.77;;;;;;;-143.84;61.59;45254.72;5131684;27;20496;-70
2022/12/14 00:12:02;;;;;;;13.33;8.70;;;;;;;-143.84;61.55;45269.97;5131507;27;20539;-70
2022/12/14 00:14:29;;;;;;;14.53;9.30;;;;;;;-143.84;61.29;45260.44;5131854;27;20439;-70
2022/12/14 00:16:56;;;;;;;18.93;9.63;;;;;;;-143.84;61.46;45239.50;5131583;27;20475;-70
2022/12/14 00:19:23;;;;;;;15.27;9.53;;;;;;;-143.84;61.66;45275.66;5131404;27;21032;-70
2022/12/14 00:21:52;;;;;;;12.70;9.10;;;;;;;-143.84;61.25;45279.47;5131582;27;20837;-70
2022/12/14 00:24:19;;;;;;;14.60;9.60;;;;;;;-143.84;61.15;45247.09;5131629;27;20492;-70
2022/12/14 00:26:46;;;;;;;15.00;10.80;;;;;;;-143.84;61.45;45260.44;5131471;27;20450;-70
2022/12/14 00:29:13;;;;;;;12.87;8.83;;;;;;;-143.84;61.18;45266.16;5131392;27;20434;-70
2022/12/14 00:31:40;;;;;;;12.97;8.73;;;;;;;-143.84;61.31;45247.09;5131205;27;20481;-70
2022/12/14 00:34:07;;;;;;;13.23;10.13;;;;;;;-143.84;61.09;45268.06;5131174;27;20807;-70
2022/12/14 00:36:36;;;;;;;13.60;8.20;;;;;;;-143.84;60.64;45247.09;5131366;27;20456;-70
2022/12/14 00:39:05;;;;;;;14.57;10.00;;;;;;;-143.84;60.82;45256.63;5131101;27;21210;-70
2022/12/14 00:41:32;;;;;;;13.20;9.00;;;;;;;-143.84;60.49;45254.72;5130917;27;20438;-70
2022/12/14 00:43:59;;;;;;;19.20;8.90;;;;;;;-143.84;60.61;45262.34;5130764;27;20499;-70
2022/12/14 00:46:26;;;;;;;13.20;9.07;;;;;;;-143.84;60.61;45258.53;5131020;27;20893;-70
2022/12/14 00:48:53;;;;;;;13.17;9.93;;;;;;;-143.84;60.40;45271.88;5130921;27;20448;-70
2022/12/14 00:51:21;;;;;;;15.93;10.77;;;;;;;-143.84;60.43;45249.00;5130741;27;20442;-70
2022/12/14 00:53:48;;;;;;;22.70;13.43;;;;;;;-143.84;60.43;45249.00;5130757;27;20906;-70
2022/12/14 00:56:16;;;;;;;19.57;12.83;;;;;;;-143.84;60.35;45247.09;5130820;27;20476;-70
2022/12/14 00:58:43;;;;;;;17.60;11.57;;;;;;;-143.84;60.87;45287.09;5130729;27;20450;-70
2022/12/14 01:01:12;;;;;;;16.27;11.20;;;;;;;-143.84;60.32;45292.81;5130840;27;20861;-70
2022/12/14 01:03:39;;;;;;;14.83;9.90;;;;;;;-143.84;60.27;45241.41;5130594;27;21058;-70
2022/12/14 01:06:12;;;;;;;14.47;9.23;;;;;;;-143.84;60.11;45256.63;5130539;27;20435;-70
2022/12/14 01:08:39;;;;;;;14.43;10.10;;;;;;;-143.84;59.93;45262.34;5130537;27;20438;-70
2022/12/14 01:11:08;;;;;;;12.53;9.00;;;;;;;-143.84;59.78;45226.16;5130481;27;20865;-70
2022/12/14 01:13:38;;;;;;;13.93;9.87;;;;;;;-143.84;60.04;45262.34;5130505;27;20500;-70
2022/12/14 01:16:07;;;;;;;13.80;10.23;;;;;;;-143.84;59.98;45243.31;5130443;27;21112;-70
2022/12/14 01:18:35;;;;;;;16.90;9.63;;;;;;;-143.84;60.02;45249.00;5130349;27;20853;-70
2022/12/14 01:21:13;;;;;;;14.23;9.60;;;;;;;-143.84;60.32;45245.19;5130320;27;20529;-70
2022/12/14 01:23:40;;;;;;;13.57;9.07;;;;;;;-143.84;60.81;45237.59;5130384;27;20438;-70
2022/12/14 01:26:07;;;;;;;15.60;9.00;;;;;;;-143.84;60.78;45247.09;5130362;27;20441;-70
2022/12/14 01:28:36;;;;;;;13.97;9.00;;;;;;;-143.84;61.22;45281.38;5130324;27;20851;-70
2022/12/14 01:31:08;;;;;;;12.20;9.03;;;;;;;-143.84;61.06;45231.88;5130288;27;20447;-70
2022/12/14 01:33:35;;;;;;;14.70;8.73;;;;;;;-143.84;61.79;45266.16;5130030;27;20539;-70
2022/12/14 01:36:06;;;;;;;14.20;9.43;;;;;;;-143.84;62.11;45269.97;5130179;27;20514;-70
2022/12/14 01:38:33;;;;;;;13.30;9.17;;;;;;;-143.84;62.19;45258.53;5129912;27;20446;-70
2022/12/14 01:41:00;;;;;;;16.00;10.33;;;;;;;-143.84;62.63;45264.25;5129932;27;20438;-70
2022/12/14 01:43:47;;;;;;;14.77;9.13;;;;;;;-143.84;63.17;45241.41;5129883;27;20450;-70
2022/12/14 01:46:18;;;;;;;12.00;8.43;;;;;;;-143.84;63.14;45285.19;5129694;27;20538;-70
2022/12/14 01:48:47;;;;;;;13.40;9.00;;;;;;;-143.84;63.47;45237.59;5130203;27;20440;-70
2022/12/14 01:51:14;;;;;;;13.40;8.80;;;;;;;-143.84;63.48;45245.19;5129795;27;20442;-70
2022/12/14 01:53:41;;;;;;;12.47;8.83;;;;;;;-143.84;63.98;45266.16;5129630;27;20530;-70
2022/12/14 01:56:09;;;;;;;15.37;9.10;;;;;;;-143.84;64.08;45268.06;5129794;27;20932;-70
2022/12/14 01:58:36;;;;;;;14.00;10.17;;;;;;;-143.84;64.63;45269.97;5129737;27;20435;-70
2022/12/14 02:01:04;;;;;;;15.57;10.30;;;;;;;-143.84;64.83;45262.34;5129576;27;21124;-70
2022/12/14 02:03:36;;;;;;;15.10;10.00;;;;;;;-143.84;65.42;45266.16;5130031;27;20449;-70
2022/12/14 02:06:07;;;;;;;15.30;9.90;;;;;;;-143.84;65.31;45273.78;5129710;27;20435;-70
2022/12/14 02:08:35;;;;;;;16.67;9.60;;;;;;;-143.84;65.25;45250.91;5129109;28;20430;-70
2022/12/14 02:11:03;;;;;;;17.87;10.73;;;;;;;-143.84;65.65;45249.00;5128701;27;20971;-70
2022/12/14 02:13:33;;;;;;;15.53;10.70;;;;;;;-143.84;65.87;45237.59;5128708;28;20482;-70
2022/12/14 02:16:01;;;;;;;17.63;10.80;;;;;;;-143.84;66.00;45268.06;5128667;28;20441;-70
2022/12/14 02:18:31;;;;;;;14.60;10.17;;;;;;;-143.84;66.81;45241.41;5129560;28;20438;-70
2022/12/14 02:21:26;;;;;;;15.43;9.30;;;;;;;-143.84;67.13;45235.69;5129697;28;20865;-70
2022/12/14 02:24:30;;;;;;;15.27;9.70;;;;;;;-143.84;67.25;45269.97;5126204;28;20450;-70
2022/12/14 02:27:08;;;;;;;11.83;8.97;;;;;;;-143.84;67.80;45264.25;5129491;28;20510;-70
2022/12/14 02:30:03;;;;;;;13.40;9.67;;;;;;;-143.84;67.50;45279.47;5129355;28;20550;-70
2022/12/14 02:32:58;;;;;;;10.87;8.93;;;;;;;-143.84;67.82;45266.16;5129348;28;20482;-70
2022/12/14 02:35:37;;;;;;;13.23;9.33;;;;;;;-143.84;68.20;45268.06;5122832;28;20451;-70
2022/12/14 02:38:15;;;;;;;21.73;10.00;;;;;;;-143.84;67.94;45268.06;5129441;28;20441;-70
2022/12/14 02:40:52;;;;;;;12.70;9.13;;;;;;;-143.84;68.15;45262.34;5129577;28;20438;-70
2022/12/14 02:43:30;;;;;;;15.40;10.50;;;;;;;-143.84;68.61;45250.91;5129075;28;20448;-70
2022/12/14 02:46:10;;;;;;;14.63;10.23;;;;;;;-143.84;68.78;45281.38;5128874;28;20539;-70
2022/12/14 02:48:41;;;;;;;17.43;10.80;;;;;;;-143.84;68.69;45250.91;5129244;28;20446;-70
2022/12/14 02:51:18;;;;;;;14.43;9.83;;;;;;;-143.84;69.55;45266.16;5129298;28;21362;-70
2022/12/14 02:53:50;;;;;;;12.53;9.03;;;;;;;-143.84;69.12;45266.16;5129628;28;20478;-69
2022/12/14 02:56:23;;;;;;;16.13;10.90;;;;;;;-143.84;69.87;45250.91;5129094;28;20442;-69
2022/12/14 02:58:52;;;;;;;15.43;10.30;;;;;;;-143.84;70.46;45260.44;5129366;28;20511;-69
2022/12/14 03:01:25;;;;;;;11.17;9.37;;;;;;;-143.84;70.22;45268.06;5129047;28;20449;-69
2022/12/14 03:03:52;;;;;;;15.57;10.93;;;;;;;-143.84;70.31;45249.00;5129059;28;20997;-69
2022/12/14 03:06:25;;;;;;;21.83;11.80;;;;;;;-143.84;70.25;45262.34;5128943;28;20446;-69
2022/12/14 03:08:57;;;;;;;24.43;11.90;;;;;;;-143.84;70.78;45271.88;5129018;28;20511;-69
2022/12/14 03:11:32;;;;;;;17.13;11.77;;;;;;;-143.84;71.28;45254.72;5129061;28;21012;-69
2022/12/14 03:14:05;;;;;;;14.80;11.00;;;;;;;-143.84;71.82;45243.31;5129139;28;20590;-69
2022/12/14 03:16:39;;;;;;;16.17;11.10;;;;;;;-143.84;71.82;45264.25;5128872;28;20438;-69
2022/12/14 03:19:11;;;;;;;14.67;11.17;;;;;;;-143.84;72.42;45237.59;5129113;28;20446;-69
2022/12/14 03:21:44;;;;;;;22.50;13.10;;;;;;;-143.84;73.10;45273.78;5128796;28;20866;-69
2022/12/14 03:24:15;;;;;;;17.47;10.33;;;;;;;-143.84;72.99;45258.53;5131079;27;20528;-69
2022/12/14 03:26:46;;;;;;;20.03;13.33;;;;;;;-143.84;73.40;45252.81;5132722;27;20434;-69
2022/12/14 03:29:18;;;;;;;20.43;11.70;;;;;;;-143.84;73.79;45249.00;5132282;27;20442;-69
2022/12/14 03:31:50;;;;;;;19.80;12.30;;;;;;;-143.84;73.86;45243.31;5132340;27;20487;-69
2022/12/14 03:34:21;;;;;;;26.07;12.43;;;;;;;-143.84;73.56;45262.34;5132404;27;20542;-69
2022/12/14 03:36:52;;;;;;;15.83;11.50;;;;;;;-143.84;73.79;45254.72;5132416;27;20450;-69
2022/12/14 03:39:25;;;;;;;19.60;12.20;;;;;;;-143.84;73.88;45247.09;5132332;27;20823;-69
2022/12/14 03:41:59;;;;;;;19.63;12.20;;;;;;;-143.84;73.70;45243.31;5132473;27;20442;-69
2022/12/14 03:44:35;;;;;;;27.90;16.00;;;;;;;-143.84;73.61;45256.63;5131801;27;20469;-69
2022/12/14 03:47:17;;;;;;;33.13;21.47;;;;;;;-143.84;74.04;45229.97;5132304;27;20454;-69
2022/12/14 03:49:56;;;;;;;28.03;18.77;;;;;;;-143.84;74.17;45247.09;5131990;27;20460;-69
2022/12/14 03:52:29;;;;;;;33.00;20.80;;;;;;;-143.84;73.95;45256.63;5132336;27;20439;-69
2022/12/14 03:55:07;;;;;;;33.37;21.17;;;;;;;-143.84;73.93;45237.59;5132024;27;20527;-69
2022/12/14 03:57:48;;;;;;;30.97;19.80;;;;;;;-143.84;74.36;45266.16;5132036;27;20448;-69
2022/12/14 04:00:21;;;;;;;31.23;19.57;;;;;;;-143.84;74.08;45245.19;5132028;27;20442;-69
2022/12/14 04:03:00;;;;;;;28.57;18.57;;;;;;;-143.84;74.93;45285.19;5131727;27;20446;-69
2022/12/14 04:05:32;;;;;;;29.80;18.90;;;;;;;-143.84;74.78;45262.34;5131635;27;20451;-69
2022/12/14 04:08:07;;;;;;;29.87;18.57;;;;;;;-143.84;75.35;45260.44;5131745;27;20492;-69
2022/12/14 04:19:08;;;;;;;22.73;14.83;;;;;;;-143.84;75.80;45235.69;5131693;27;20448;-69
2022/12/14 04:21:42;;;;;;;20.67;13.90;;;;;;;-143.84;76.05;45229.97;5131413;27;20947;-69
2022/12/14 04:27:08;;;;;;;17.93;12.93;;;;;;;-143.84;77.12;45256.63;5131600;27;20448;-68
2022/12/14 04:29:56;;;;;;;19.50;13.17;;;;;;;-143.84;77.00;45254.72;5131377;27;20440;-69
2022/12/14 04:32:29;;;;;;;19.90;13.17;;;;;;;-143.84;76.93;45239.50;5131165;27;20444;-69
2022/12/14 04:35:02;;;;;;;17.50;12.77;;;;;;;-143.84;77.14;45252.81;5130842;27;20444;-69
2022/12/14 04:37:32;;;;;;;18.83;13.43;;;;;;;-143.84;77.03;45233.78;5131203;27;20450;-69
2022/12/14 04:40:06;;;;;;;18.60;11.97;;;;;;;-143.84;77.54;45247.09;5131520;27;20435;-69
2022/12/14 04:42:36;;;;;;;22.53;14.00;;;;;;;-143.84;77.46;45247.09;5131140;27;21141;-69
2022/12/14 04:45:10;;;;;;;33.20;17.13;;;;;;;-143.84;77.70;45203.31;5130933;27;20485;-69
2022/12/14 04:47:44;;;;;;;30.57;15.20;;;;;;;-143.84;77.88;45237.59;5131185;27;20532;-69
2022/12/14 04:50:21;;;;;;;23.63;14.73;;;;;;;-143.84;78.20;45273.78;5131120;27;20526;-69
2022/12/14 04:52:52;;;;;;;20.37;14.53;;;;;;;-143.84;77.87;45233.78;5130529;27;20481;-68
2022/12/14 04:55:28;;;;;;;28.53;15.87;;;;;;;-143.84;77.57;45239.50;5128811;27;20439;-69
2022/12/14 04:58:00;;;;;;;28.53;16.27;;;;;;;-143.84;78.20;45231.88;5110545;27;20516;-69
2022/12/14 05:00:30;;;;;;;21.90;14.17;;;;;;;-143.84;77.82;45254.72;5108612;28;20445;-69
2022/12/14 05:03:16;;;;;;;19.20;14.47;;;;;;;-143.84;77.65;45262.34;5109424;28;20492;-69
2022/12/14 05:05:56;;;;;;;30.80;14.37;;;;;;;-143.84;78.03;45231.88;5109490;28;20950;-69
2022/12/14 05:08:36;;;;;;;21.33;13.97;;;;;;;-143.84;78.23;45247.09;5109741;28;20899;-70
2022/12/14 05:11:09;;;;;;;20.23;14.00;;;;;;;-143.84;78.61;45271.88;5109880;28;20438;-70
2022/12/14 05:13:42;;;;;;;25.53;14.20;;;;;;;-143.84;78.24;45224.25;5109928;28;20480;-70
2022/12/14 05:16:11;;;;;;;22.43;13.27;;;;;;;-143.84;78.42;45226.16;5109057;28;20427;-70
2022/12/14 05:18:38;;;;;;;20.20;13.73;;;;;;;-143.84;78.98;45233.78;5109618;28;20442;-69
2022/12/14 05:21:45;;;;;;;33.70;14.30;;;;;;;-143.84;78.46;45243.31;5109448;28;20503;-69
2022/12/14 05:23:56;;;;;;;23.07;13.47;;;;;;;-143.84;78.94;45260.44;5109422;28;20446;-69
2022/12/14 05:26:23;;;;;;;19.57;12.80;;;;;;;-143.84;78.31;45241.41;5109447;28;20423;-69
2022/12/14 05:28:50;;;;;;;19.80;14.07;;;;;;;-143.84;78.07;45245.19;5109519;28;20873;-69
2022/12/14 05:31:17;;;;;;;26.93;13.90;;;;;;;-143.84;78.12;45250.91;5115928;27;20436;-71
2022/12/14 05:33:44;;;;;;;26.20;16.30;;;;;;;-143.84;78.20;45233.78;5129460;27;20488;-71
2022/12/14 05:36:13;;;;;;;22.83;13.87;;;;;;;-143.84;78.63;45254.72;5130135;27;20438;-71
2022/12/14 05:38:40;;;;;;;26.53;14.37;;;;;;;-143.84;78.88;45231.88;5130159;27;20442;-71
2022/12/14 05:41:07;;;;;;;21.03;13.93;;;;;;;-143.84;78.74;45239.50;5130020;27;20838;-71
2022/12/14 05:43:34;;;;;;;28.73;14.80;;;;;;;-143.84;78.21;45220.44;5129800;27;20426;-71
2022/12/14 05:46:03;;;;;;;22.07;14.17;;;;;;;-143.84;78.51;45222.34;5129050;27;21106;-70
2022/12/14 05:48:31;;;;;;;27.30;15.80;;;;;;;-143.84;78.49;45235.69;5129901;27;20872;-71
2022/12/14 05:51:05;;;;;;;24.60;15.27;;;;;;;-143.84;78.93;45252.81;5129779;27;20456;-70
2022/12/14 05:53:33;;;;;;;42.87;15.03;;;;;;;-143.84;79.03;45233.78;5129828;27;20473;-71
2022/12/14 05:56:00;;;;;;;24.83;16.10;;;;;;;-143.84;79.31;45245.19;5130294;27;20445;-71
2022/12/14 05:58:28;;;;;;;23.50;15.57;;;;;;;-143.84;78.91;45237.59;5129877;27;20440;-71
2022/12/14 06:00:59;;;;;;;26.83;16.77;;;;;;;-143.84;79.34;45266.16;5129575;27;20442;-71
2022/12/14 06:03:26;;;;;;;22.73;13.93;;;;;;;-143.84;79.49;45258.53;5129703;27;21004;-70
2022/12/14 06:05:53;;;;;;;34.53;15.93;;;;;;;-143.84;79.71;45241.41;5129542;27;20434;-71
2022/12/14 06:08:21;;;;;;;32.33;17.40;;;;;;;-143.84;79.36;45235.69;5129992;27;20923;-70
2022/12/14 06:10:50;;;;;;;37.10;21.33;;;;;;;-143.84;79.32;45245.19;5129734;28;20430;-70
2022/12/14 06:13:17;;;;;;;35.47;19.10;;;;;;;-143.84;79.72;45203.31;5129779;28;20549;-70
2022/12/14 06:15:44;;;;;;;31.47;18.07;;;;;;;-143.84;79.73;45210.94;5129548;28;20507;-70
2022/12/14 06:18:11;;;;;;;33.60;18.40;;;;;;;-143.84;79.53;45210.94;5129485;28;20439;-70
2022/12/14 06:20:38;;;;;;;25.93;17.70;;;;;;;-143.84;79.69;45250.91;5129552;28;20522;-70
2022/12/14 06:23:05;;;;;;;24.73;17.30;;;;;;;-143.84;80.10;45243.31;5129483;28;20430;-70
2022/12/14 06:25:32;;;;;;;33.43;16.53;;;;;;;-143.84;79.97;45210.94;5129743;28;20442;-70
2022/12/14 06:28:01;;;;;;;32.67;19.20;;;;;;;-143.84;79.70;45224.25;5129429;28;20445;-70
2022/12/14 06:30:28;;;;;;;25.30;15.83;;;;;;;-143.84;79.94;45207.13;5129531;28;20464;-70
2022/12/14 06:32:55;;;;;;;31.67;17.30;;;;;;;-143.84;79.45;45239.50;5129377;28;20652;-70
2022/12/14 06:35:23;;;;;;;28.03;18.10;;;;;;;-143.84;79.71;45205.22;5129350;28;20462;-70
2022/12/14 06:37:50;;;;;;;27.57;17.43;;;;;;;-143.84;79.51;45239.50;5129330;28;20442;-71
2022/12/14 06:40:17;;;;;;;30.63;18.70;;;;;;;-143.84;79.62;45195.69;5129226;28;20468;-70
2022/12/14 06:42:48;;;;;;;32.47;19.00;;;;;;;-143.84;79.76;45239.50;5129169;28;21267;-70
2022/12/14 06:45:17;;;;;;;30.17;20.13;;;;;;;-143.84;79.68;45245.19;5129203;28;20477;-70
2022/12/14 06:47:44;;;;;;;47.10;26.10;;;;;;;-143.84;79.40;45210.94;5129288;28;20458;-71
2022/12/14 06:50:11;;;;;;;46.60;26.60;;;;;;;-143.84;79.60;45231.88;5129378;28;20435;-70
2022/12/14 06:52:38;;;;;;;53.40;27.17;;;;;;;-143.84;79.52;45239.50;5128909;28;20455;-70
2022/12/14 06:55:07;;;;;;;39.40;22.13;;;;;;;-143.84;79.51;45229.97;5128840;28;20477;-71
2022/12/14 06:57:34;;;;;;;37.33;24.07;;;;;;;-143.84;79.27;45229.97;5130132;27;20438;-70
2022/12/14 07:00:01;;;;;;;40.30;23.40;;;;;;;-143.84;79.14;45226.16;5133160;27;20439;-71
2022/12/14 07:02:30;;;;;;;45.50;23.33;;;;;;;-143.84;79.11;45237.59;5132569;27;20430;-70
2022/12/14 07:04:57;;;;;;;32.43;20.30;;;;;;;-143.84;79.29;45228.06;5132499;27;20474;-70
2022/12/14 07:07:24;;;;;;;28.37;19.10;;;;;;;-143.84;79.19;45212.84;5132638;27;20446;-71
2022/12/14 07:09:51;;;;;;;26.30;17.60;;;;;;;-143.84;78.98;45237.59;5133032;27;20445;-71
2022/12/14 07:12:18;;;;;;;28.83;18.07;;;;;;;-143.84;78.94;45209.03;5132715;27;20990;-71
2022/12/14 07:14:46;;;;;;;28.33;17.80;;;;;;;-143.84;78.60;45220.44;5132684;27;20485;-71
2022/12/14 07:17:13;;;;;;;31.40;18.23;;;;;;;-143.84;78.55;45210.94;5132859;27;21010;-70
2022/12/14 07:19:43;;;;;;;28.63;18.27;;;;;;;-143.84;78.62;45228.06;5133048;27;20434;-70
2022/12/14 07:22:10;;;;;;;29.73;18.10;;;;;;;-143.84;78.54;45231.88;5132808;27;20957;-70
2022/12/14 07:24:37;;;;;;;22.77;15.83;;;;;;;-143.84;77.94;45216.63;5132636;27;20438;-71
2022/12/14 07:27:05;;;;;;;34.47;17.20;;;;;;;-143.84;78.11;45226.16;5132524;27;20800;-71
2022/12/14 07:29:32;;;;;;;27.83;17.07;;;;;;;-143.84;77.97;45235.69;5132850;27;20448;-71
2022/12/14 07:31:59;;;;;;;29.37;17.63;;;;;;;-143.84;77.66;45201.41;5132575;27;20864;-71
2022/12/14 07:34:27;;;;;;;27.93;16.60;;;;;;;-143.84;76.68;45209.03;5132475;27;20484;-71
2022/12/14 07:36:56;;;;;;;20.67;15.33;;;;;;;-143.84;76.15;45210.94;5132507;27;20449;-71
2022/12/14 07:39:23;;;;;;;19.40;14.20;;;;;;;-143.84;76.09;45209.03;5132413;27;20453;-71
2022/12/14 07:41:53;;;;;;;22.73;15.03;;;;;;;-143.84;75.42;45228.06;5132401;27;20986;-70
2022/12/14 07:44:20;;;;;;;18.27;13.10;;;;;;;-143.84;74.95;45233.78;5131934;27;20988;-71
2022/12/14 07:46:47;;;;;;;18.80;13.50;;;;;;;-143.84;74.70;45193.78;5132459;27;20519;-71
2022/12/14 07:49:14;;;;;;;17.33;13.20;;;;;;;-143.84;74.24;45216.63;5131976;27;20431;-71
2022/12/14 07:51:43;;;;;;;19.10;14.20;;;;;;;-143.84;73.69;45216.63;5132191;27;20438;-71
2022/12/14 07:54:12;;;;;;;21.67;13.37;;;;;;;-143.84;73.31;45220.44;5132230;27;20532;-71
2022/12/14 07:56:41;;;;;;;18.03;12.67;;;;;;;-143.84;73.11;45241.41;5131896;27;20442;-71
2022/12/14 07:59:13;;;;;;;23.17;14.30;;;;;;;-143.84;73.78;45222.34;5132024;27;20438;-71
2022/12/14 08:01:41;;;;;;;18.47;14.03;;;;;;;-143.84;72.74;45195.69;5131911;27;20539;-71
2022/12/14 08:04:10;;;;;;;18.87;14.20;;;;;;;-143.84;71.40;45199.50;5131964;27;20447;-71
2022/12/14 08:06:38;;;;;;;20.47;13.70;;;;;;;-143.84;71.31;45220.44;5131897;27;20441;-69
2022/12/14 08:09:06;;;;;;;17.83;14.00;;;;;;;-143.84;70.32;45201.41;5131191;27;20450;-69
2022/12/14 08:11:35;;;;;;;20.20;13.40;;;;;;;-143.84;69.97;45212.84;5113565;27;20493;-69
2022/12/14 08:14:04;;;;;;;18.10;12.40;;;;;;;-143.84;69.60;45205.22;5131605;27;20541;-69
2022/12/14 08:16:32;;;;;;;18.10;13.40;;;;;;;-143.84;68.62;45214.72;5131842;27;20459;-69
2022/12/14 08:19:00;;;;;;;17.43;12.17;;;;;;;-143.84;68.42;45195.69;5131751;27;20441;-69
2022/12/14 08:21:28;;;;;;;15.97;12.20;;;;;;;-143.84;68.86;45186.16;5131547;27;20513;-69
2022/12/14 08:23:56;;;;;;;16.50;12.80;;;;;;;-143.84;68.85;45228.06;5131510;27;21025;-69
2022/12/14 08:26:24;;;;;;;15.17;12.40;;;;;;;-143.84;69.29;45199.50;5131706;27;20444;-69
2022/12/14 08:28:54;;;;;;;15.83;12.33;;;;;;;-143.84;69.52;45178.56;5131709;27;20433;-69
2022/12/14 08:31:24;;;;;;;18.40;13.13;;;;;;;-143.84;69.26;45233.78;5131541;27;20525;-69
2022/12/14 08:33:52;;;;;;;18.57;13.40;;;;;;;-143.84;69.97;45216.63;5131338;27;20479;-69
2022/12/14 08:36:21;;;;;;;16.40;11.90;;;;;;;-143.84;70.06;45201.41;5131367;27;20444;-69
2022/12/14 08:38:53;;;;;;;17.60;12.67;;;;;;;-143.84;69.77;45191.88;5131076;27;20440;-69
2022/12/14 08:41:20;;;;;;;19.40;12.00;;;;;;;-143.84;69.87;45228.06;5131253;27;20440;-69
2022/12/14 08:43:51;;;;;;;15.97;12.53;;;;;;;-143.84;70.87;45224.25;5131330;27;20451;-69
2022/12/14 08:46:20;;;;;;;16.07;12.97;;;;;;;-143.84;70.07;45197.59;5130781;27;20483;-69
2022/12/14 08:48:49;;;;;;;18.80;13.63;;;;;;;-143.84;70.12;45216.63;5131091;27;20501;-70
2022/12/14 08:51:17;;;;;;;15.70;12.17;;;;;;;-143.84;69.95;45235.69;5131070;27;20518;-70
2022/12/14 08:53:46;;;;;;;21.03;11.63;;;;;;;-143.84;70.39;45216.63;5131256;27;21181;-69
2022/12/14 08:56:15;;;;;;;17.93;12.10;;;;;;;-143.84;69.98;45189.97;5130891;27;20441;-69
2022/12/14 08:58:43;;;;;;;19.80;12.97;;;;;;;-143.84;69.60;45231.88;5130988;27;20436;-69
2022/12/14 09:01:12;;;;;;;15.33;12.60;;;;;;;-143.84;69.35;45210.94;5130903;27;20444;-70
2022/12/14 09:03:41;;;;;;;16.90;12.67;;;;;;;-143.84;69.39;45191.88;5130622;27;20448;-69
2022/12/14 09:06:10;;;;;;;16.70;12.57;;;;;;;-143.84;69.33;45260.44;5130764;27;20448;-69
2022/12/14 09:08:37;;;;;;;15.60;12.50;;;;;;;-143.84;69.69;45212.84;5130626;27;20855;-69
2022/12/14 09:11:06;;;;;;;16.10;12.60;;;;;;;-143.84;68.91;45197.59;5130568;27;20505;-69
2022/12/14 09:13:33;;;;;;;13.87;11.47;;;;;;;-143.84;69.17;45176.66;5130612;27;20482;-69
2022/12/14 09:16:03;;;;;;;20.80;13.13;;;;;;;-143.84;69.03;45241.41;5130465;27;20481;-69
2022/12/14 09:18:32;;;;;;;19.87;12.57;;;;;;;-143.84;68.66;45203.31;5130937;27;20450;-69
2022/12/14 09:21:00;;;;;;;15.43;12.23;;;;;;;-143.84;68.83;45228.06;5129339;27;20531;-69
2022/12/14 09:23:29;;;;;;;14.20;11.53;;;;;;;-143.84;68.78;45210.94;5130204;27;20440;-69
2022/12/14 09:26:00;;;;;;;14.00;12.13;;;;;;;-143.84;68.84;45207.13;5130541;27;20442;-70
2022/12/14 09:28:28;;;;;;;13.40;11.13;;;;;;;-143.84;68.76;45209.03;5130297;27;20475;-70
2022/12/14 09:30:57;;;;;;;14.27;11.30;;;;;;;-143.84;68.07;45210.94;5130387;27;20470;-69
2022/12/14 09:33:24;;;;;;;18.50;11.47;;;;;;;-143.84;68.05;45188.06;5130503;27;20441;-69
2022/12/14 09:35:52;;;;;;;15.93;12.50;;;;;;;-143.84;68.66;45186.16;5130000;27;20487;-70
2022/12/14 09:38:20;;;;;;;14.30;11.33;;;;;;;-143.84;68.23;45209.03;5130003;27;20851;-69
2022/12/14 09:40:56;;;;;;;16.37;11.90;;;;;;;-143.84;68.01;45195.69;5130053;27;20940;-69
2022/12/14 09:43:36;;;;;;;15.40;11.23;;;;;;;-143.84;67.82;45191.88;5130222;27;20452;-69
2022/12/14 09:46:19;;;;;;;14.80;10.57;;;;;;;-143.84;68.52;45214.72;5129822;27;20488;-69
2022/12/14 09:48:47;;;;;;;14.47;8.10;;;;;;;-143.84;66.01;45212.84;5130014;27;20436;-69
2022/12/14 09:51:17;;;;;;;8.40;7.50;;;;;;;-143.84;66.42;45218.53;5130297;27;20858;-69
2022/12/14 09:53:49;;;;;;;11.10;8.80;;;;;;;-143.84;66.25;45207.13;5129978;27;20867;-69
2022/12/14 09:56:19;;;;;;;10.40;8.57;;;;;;;-143.84;66.38;45178.56;5129768;27;20535;-69
2022/12/14 09:58:54;;;;;;;14.03;11.07;;;;;;;-143.84;67.16;45186.16;5129834;27;20441;-69
2022/12/14 10:01:45;;;;;;;10.07;8.97;;;;;;;-143.84;66.27;45214.72;5129737;27;20431;-69
2022/12/14 10:04:22;;;;;;;14.10;8.30;;;;;;;-143.84;66.47;45207.13;5129841;27;20441;-69
2022/12/14 10:06:58;;;;;;;11.20;9.50;;;;;;;-143.84;68.01;45226.16;5129789;27;20435;-69
2022/12/14 10:09:35;;;;;;;12.43;9.37;;;;;;;-143.84;68.69;45209.03;5129605;27;20455;-69
2022/12/14 10:12:16;;;;;;;7.87;6.60;;;;;;;-143.84;65.99;45186.16;5129329;28;20443;-69
2022/12/14 10:15:02;;;;;;;14.63;5.23;;;;;;;-143.84;62.79;45205.22;5129209;28;20575;-69
2022/12/14 10:17:42;;;;;;;5.47;4.80;;;;;;;-143.84;62.75;45193.78;5129677;28;20483;-69
2022/12/14 10:20:18;;;;;;;5.13;4.20;;;;;;;-143.84;63.31;45207.13;5129428;28;20460;-69
2022/12/14 10:22:51;;;;;;;4.27;3.87;;;;;;;-143.84;63.23;45201.41;5129683;28;20508;-69
2022/12/14 10:25:24;;;;;;;4.20;3.80;;;;;;;-143.84;63.33;45220.44;5129518;28;20443;-69
2022/12/14 10:27:57;;;;;;;5.77;3.77;;;;;;;-143.84;61.90;45228.06;5129455;28;20681;-69
2022/12/14 10:30:24;;;;;;;5.10;4.60;;;;;;;-143.84;61.75;45212.84;5129342;28;20454;-69
2022/12/14 10:32:56;;;;;;;5.00;4.50;;;;;;;-143.84;62.85;45214.72;5131682;27;20442;-69
2022/12/14 10:35:33;;;;;;;4.40;4.00;;;;;;;-143.84;62.13;45210.94;5133463;27;20482;-69
2022/12/14 10:38:06;;;;;;;5.83;3.90;;;;;;;-143.84;62.80;45216.63;5133558;27;20794;-69
2022/12/14 10:40:35;;;;;;;3.73;3.43;;;;;;;-143.84;63.60;45222.34;5133736;27;20465;-69
2022/12/14 10:43:24;;;;;;;3.87;3.57;;;;;;;-143.84;63.04;45161.41;5133538;27;20955;-72
2022/12/14 10:46:01;;;;;;;5.40;4.90;;;;;;;-143.84;64.46;45203.31;5133252;27;20470;-70
2022/12/14 10:48:39;;;;;;;4.00;3.67;;;;;;;-143.84;62.09;45205.22;5133421;27;20459;-70
2022/12/14 10:51:11;;;;;;;3.93;3.63;;;;;;;-143.84;61.41;45199.50;5133193;27;20523;-69
2022/12/14 10:53:43;;;;;;;3.90;3.60;;;;;;;-143.84;60.92;45224.25;5133229;27;20443;-70
2022/12/14 10:56:19;;;;;;;6.90;3.40;;;;;;;-143.84;61.35;45212.84;5133217;27;20481;-70
2022/12/14 10:59:28;;;;;;;4.17;3.77;;;;;;;-143.84;61.89;45214.72;5133320;27;20441;-69
2022/12/14 11:02:02;;;;;;;7.03;4.90;;;;;;;-143.84;62.07;45201.41;5133098;27;20430;-70
2022/12/14 11:04:33;;;;;;;5.00;4.00;;;;;;;-143.84;62.57;45216.63;5132935;27;20442;-70
2022/12/14 11:07:03;;;;;;;4.73;3.90;;;;;;;-143.84;62.68;45203.31;5133373;27;20438;-70
2022/12/14 11:09:31;;;;;;;4.10;3.90;;;;;;;-143.84;62.92;45250.91;5133208;27;20452;-70
2022/12/14 11:12:02;;;;;;;5.80;4.47;;;;;;;-143.84;63.32;45209.03;5132983;27;20446;-70
2022/12/14 11:14:30;;;;;;;10.53;6.43;;;;;;;-143.84;64.39;45218.53;5132778;27;20444;-70
2022/12/14 11:16:57;;;;;;;5.33;4.60;;;;;;;-143.84;65.30;45201.41;5132541;27;20439;-70
2022/12/14 11:19:26;;;;;;;6.80;4.80;;;;;;;-143.84;65.59;45226.16;5132593;27;20450;-70
2022/12/14 11:22:07;;;;;;;7.53;4.87;;;;;;;-143.84;66.50;45212.84;5132835;27;20438;-69
2022/12/14 11:24:44;;;;;;;5.20;4.43;;;;;;;-143.84;67.51;45205.22;5132619;27;20443;-70
2022/12/14 11:27:16;;;;;;;7.57;5.93;;;;;;;-143.84;67.07;45195.69;5132550;27;20481;-70
2022/12/14 11:29:48;;;;;;;7.20;4.47;;;;;;;-143.84;64.22;45212.84;5132919;27;20522;-70
2022/12/14 11:32:25;;;;;;;7.80;4.70;;;;;;;-143.84;65.16;45210.94;5132754;27;20493;-69
2022/12/14 11:34:59;;;;;;;4.93;4.50;;;;;;;-143.84;64.86;45195.69;5132486;27;20860;-70